Time;durP1;ratioP1;P1;durP2;ratioP2;P2;SDS_P1;SDS_P2;PMS_P1;PMS_P2;Temp;Humidity;BMP_temperature;BMP_pressure;BME280_temperature;BME280_humidity;BME280_pressure;Samples;Min_cycle;Max_cycle;Signal;HPM_P1;HPM_P2
2022/07/25 00:00:06;;;;;;;5.57;2.20;;;22.30;99.90;;;;;;5008538;28;20128;-84
2022/07/25 00:02:32;;;;;;;3.88;2.25;;;22.30;99.90;;;;;;5007325;28;20041;-84
2022/07/25 00:04:57;;;;;;;3.63;2.42;;;22.30;99.90;;;;;;5016608;28;20042;-83
2022/07/25 00:07:23;;;;;;;4.15;2.30;;;22.30;99.90;;;;;;4998619;28;20044;-84
2022/07/25 00:09:49;;;;;;;4.53;2.92;;;22.20;99.90;;;;;;5008178;28;20042;-85
2022/07/25 00:12:15;;;;;;;4.45;2.40;;;22.20;99.90;;;;;;5026357;28;20057;-84
2022/07/25 00:14:41;;;;;;;6.63;3.53;;;22.30;99.90;;;;;;4999584;28;20053;-84
2022/07/25 00:17:07;;;;;;;4.85;2.72;;;22.30;99.90;;;;;;5007864;28;20045;-84
2022/07/25 00:19:34;;;;;;;4.47;3.00;;;22.30;99.90;;;;;;5017719;28;20411;-84
2022/07/25 00:22:00;;;;;;;4.47;2.88;;;22.30;99.90;;;;;;4997021;28;20076;-84
2022/07/25 00:24:25;;;;;;;4.85;2.53;;;22.30;99.90;;;;;;5001871;28;20082;-84
2022/07/25 00:26:54;;;;;;;4.80;2.63;;;22.20;99.90;;;;;;5004917;28;20041;-83
2022/07/25 00:29:20;;;;;;;5.22;3.33;;;22.30;99.90;;;;;;5001243;28;20120;-84
2022/07/25 00:31:45;;;;;;;6.75;3.38;;;22.40;99.90;;;;;;5005923;28;20050;-85
2022/07/25 00:34:11;;;;;;;7.22;3.60;;;22.10;99.90;;;;;;5004948;28;20038;-83
2022/07/25 00:36:37;;;;;;;8.18;4.38;;;22.20;99.90;;;;;;5022869;28;20072;-84
2022/07/25 00:39:03;;;;;;;7.78;4.07;;;22.40;99.90;;;;;;5017323;28;20507;-84
2022/07/25 00:41:29;;;;;;;6.05;3.88;;;22.30;99.90;;;;;;5012381;28;20053;-84
2022/07/25 00:43:55;;;;;;;6.38;3.67;;;22.30;99.90;;;;;;5022388;28;20063;-84
2022/07/25 00:46:21;;;;;;;5.18;3.70;;;22.40;99.90;;;;;;5006687;28;20132;-84
2022/07/25 00:48:48;;;;;;;5.20;3.80;;;22.40;99.90;;;;;;5019299;28;20475;-83
2022/07/25 00:51:16;;;;;;;6.38;4.18;;;22.30;99.90;;;;;;5023713;28;20087;-84
2022/07/25 00:53:42;;;;;;;8.70;4.47;;;22.30;99.90;;;;;;5020222;28;20105;-83
2022/07/25 00:56:08;;;;;;;7.10;4.43;;;22.20;99.90;;;;;;4995179;28;20046;-82
2022/07/25 00:58:34;;;;;;;6.30;4.05;;;22.20;99.90;;;;;;5023252;28;20503;-83
2022/07/25 01:01:00;;;;;;;6.22;4.10;;;22.10;99.90;;;;;;5003498;28;20038;-84
2022/07/25 01:03:26;;;;;;;6.88;4.35;;;22.20;99.90;;;;;;5022581;28;20109;-84
2022/07/25 01:05:52;;;;;;;8.18;4.88;;;22.10;99.90;;;;;;4993727;28;20061;-84
2022/07/25 01:08:19;;;;;;;7.57;4.82;;;22.00;99.90;;;;;;4995686;28;20128;-84
2022/07/25 01:10:46;;;;;;;7.40;4.25;;;22.00;99.90;;;;;;4990993;28;20527;-84
2022/07/25 01:13:12;;;;;;;5.80;4.40;;;22.00;99.90;;;;;;5009331;28;20124;-84
2022/07/25 01:15:38;;;;;;;7.93;4.97;;;22.00;99.90;;;;;;5015596;28;20184;-84
2022/07/25 01:18:04;;;;;;;8.02;5.57;;;21.80;99.90;;;;;;5001247;28;20095;-84
2022/07/25 01:20:31;;;;;;;7.53;5.50;;;21.80;99.90;;;;;;5004310;28;20046;-84
2022/07/25 01:22:59;;;;;;;8.00;5.45;;;21.80;99.90;;;;;;5006910;28;20065;-84
2022/07/25 01:25:27;;;;;;;9.38;5.70;;;21.70;99.90;;;;;;5007412;28;20128;-84
2022/07/25 01:27:53;;;;;;;11.65;5.72;;;21.70;99.90;;;;;;5000737;28;20441;-84
2022/07/25 01:30:20;;;;;;;7.53;5.28;;;21.50;99.90;;;;;;5018475;28;20092;-84
2022/07/25 01:32:46;;;;;;;11.25;5.72;;;21.60;99.90;;;;;;5001025;28;20453;-84
2022/07/25 01:35:13;;;;;;;9.30;5.88;;;21.60;99.90;;;;;;5004508;28;20034;-84
2022/07/25 01:37:41;;;;;;;9.02;5.65;;;21.60;99.90;;;;;;5001118;28;20046;-84
2022/07/25 01:40:08;;;;;;;10.18;5.30;;;21.50;99.90;;;;;;5002814;28;20382;-84
2022/07/25 01:42:34;;;;;;;10.32;6.40;;;21.50;99.90;;;;;;5015027;28;20175;-84
2022/07/25 01:45:03;;;;;;;8.88;5.82;;;21.50;99.90;;;;;;5004806;28;20489;-84
2022/07/25 01:47:28;;;;;;;8.35;6.30;;;21.50;99.90;;;;;;5007678;28;20456;-84
2022/07/25 01:49:54;;;;;;;10.35;6.72;;;21.60;99.90;;;;;;5003690;28;20129;-84
2022/07/25 01:52:20;;;;;;;9.45;6.40;;;21.50;99.90;;;;;;5004236;28;20038;-84
2022/07/25 01:54:45;;;;;;;8.05;6.43;;;21.50;99.90;;;;;;4999379;28;20052;-84
2022/07/25 01:57:11;;;;;;;9.65;6.78;;;21.40;99.90;;;;;;5002067;28;20041;-83
2022/07/25 01:59:38;;;;;;;8.80;7.07;;;21.50;99.90;;;;;;5006267;28;20046;-84
2022/07/25 02:02:05;;;;;;;8.43;6.47;;;21.50;99.90;;;;;;5009810;28;20133;-84
2022/07/25 02:04:31;;;;;;;8.90;6.45;;;21.50;99.90;;;;;;4991876;28;20061;-84
2022/07/25 02:06:56;;;;;;;9.60;6.53;;;21.40;99.90;;;;;;5002403;28;20026;-84
2022/07/25 02:09:22;;;;;;;7.80;6.10;;;21.40;99.90;;;;;;5002251;28;20053;-84
2022/07/25 02:11:48;;;;;;;8.45;6.63;;;21.40;99.90;;;;;;5000836;28;20058;-83
2022/07/25 02:14:14;;;;;;;8.90;6.00;;;21.40;99.90;;;;;;5000616;28;20450;-83
2022/07/25 02:16:40;;;;;;;9.23;6.18;;;21.40;99.90;;;;;;5009219;28;20042;-83
2022/07/25 02:19:05;;;;;;;9.07;6.32;;;21.40;99.90;;;;;;5000807;28;20047;-84
2022/07/25 02:21:31;;;;;;;9.50;6.50;;;21.30;99.90;;;;;;4998955;28;20383;-84
2022/07/25 02:23:58;;;;;;;9.18;6.10;;;21.30;99.90;;;;;;4999643;28;20037;-84
2022/07/25 02:26:23;;;;;;;9.48;7.13;;;21.30;99.90;;;;;;4999310;28;20052;-83
2022/07/25 02:28:49;;;;;;;10.57;6.97;;;21.30;99.90;;;;;;5006009;28;20472;-83
2022/07/25 02:31:15;;;;;;;11.18;6.80;;;21.30;99.90;;;;;;4989333;28;20683;-84
2022/07/25 02:33:41;;;;;;;11.73;6.53;;;21.20;99.90;;;;;;5000685;28;20117;-84
2022/07/25 02:36:07;;;;;;;9.38;6.68;;;21.30;99.90;;;;;;4995858;28;20056;-84
2022/07/25 02:38:33;;;;;;;8.88;7.05;;;21.20;99.90;;;;;;4994937;28;20077;-84
2022/07/25 02:41:02;;;;;;;10.88;6.60;;;21.20;99.90;;;;;;5000147;28;20120;-84
2022/07/25 02:43:29;;;;;;;9.32;6.40;;;21.20;99.90;;;;;;5003187;28;20042;-84
2022/07/25 02:45:55;;;;;;;9.73;7.15;;;21.20;99.90;;;;;;5017747;28;20149;-83
2022/07/25 02:48:21;;;;;;;10.23;7.00;;;21.10;99.90;;;;;;5007270;28;20124;-84
2022/07/25 02:50:47;;;;;;;9.80;6.68;;;21.10;99.90;;;;;;5021111;28;20045;-84
2022/07/25 02:53:12;;;;;;;10.05;6.93;;;21.10;99.90;;;;;;5023136;28;20499;-84
2022/07/25 02:55:38;;;;;;;9.63;6.57;;;21.10;99.90;;;;;;5007822;28;20051;-83
2022/07/25 02:58:04;;;;;;;10.10;7.38;;;21.10;99.90;;;;;;5006084;28;20513;-83
2022/07/25 03:00:29;;;;;;;10.65;6.75;;;21.10;99.90;;;;;;5031405;28;20050;-84
2022/07/25 03:02:57;;;;;;;11.07;7.38;;;21.10;99.90;;;;;;5016118;28;20045;-84
2022/07/25 03:05:23;;;;;;;9.23;7.05;;;21.10;99.90;;;;;;5007470;28;20045;-85
2022/07/25 03:07:48;;;;;;;8.88;7.13;;;21.20;99.90;;;;;;5003054;28;20056;-84
2022/07/25 03:10:14;;;;;;;10.65;7.47;;;21.10;99.90;;;;;;5008277;28;20833;-85
2022/07/25 03:12:42;;;;;;;10.18;7.03;;;20.90;99.90;;;;;;5011500;28;20041;-85
2022/07/25 03:15:09;;;;;;;10.52;7.60;;;21.00;99.90;;;;;;5016575;28;20413;-85
2022/07/25 03:17:36;;;;;;;10.77;8.38;;;21.00;99.90;;;;;;5006953;28;20060;-85
2022/07/25 03:20:03;;;;;;;16.10;8.63;;;21.10;99.90;;;;;;5025684;28;20091;-84
2022/07/25 03:22:28;;;;;;;10.50;8.75;;;20.90;99.90;;;;;;5018768;28;20050;-84
2022/07/25 03:24:54;;;;;;;9.85;7.80;;;20.90;99.90;;;;;;4999787;28;20041;-84
2022/07/25 03:27:20;;;;;;;12.15;7.53;;;20.90;99.90;;;;;;5007846;28;20131;-84
2022/07/25 03:29:45;;;;;;;10.00;7.68;;;20.90;99.90;;;;;;5027502;28;20056;-84
2022/07/25 03:32:11;;;;;;;9.18;7.35;;;20.80;99.90;;;;;;4999808;28;20046;-84
2022/07/25 03:34:37;;;;;;;15.27;8.43;;;20.80;99.90;;;;;;5015359;28;20494;-84
2022/07/25 03:37:04;;;;;;;12.77;8.45;;;20.70;99.90;;;;;;4997215;28;20037;-84
2022/07/25 03:39:30;;;;;;;13.10;8.85;;;20.70;99.90;;;;;;4992858;28;20077;-85
2022/07/25 03:41:56;;;;;;;11.68;9.05;;;20.70;99.90;;;;;;5003978;28;20482;-85
2022/07/25 03:44:24;;;;;;;12.82;8.77;;;20.70;99.90;;;;;;5019061;28;20049;-85
2022/07/25 03:46:50;;;;;;;11.15;8.07;;;20.70;99.90;;;;;;5001082;28;20046;-85
2022/07/25 03:49:16;;;;;;;12.52;8.85;;;20.60;99.90;;;;;;5019670;28;20033;-84
2022/07/25 03:51:42;;;;;;;11.05;8.55;;;20.60;99.90;;;;;;5020016;28;20149;-84
2022/07/25 03:54:12;;;;;;;13.98;9.48;;;20.60;99.90;;;;;;5010817;28;20038;-84
2022/07/25 03:56:39;;;;;;;12.30;8.73;;;20.60;99.90;;;;;;5020176;28;20046;-84
2022/07/25 03:59:05;;;;;;;11.02;8.55;;;20.50;99.90;;;;;;5004356;28;20457;-84
2022/07/25 04:01:34;;;;;;;11.18;8.75;;;20.50;99.90;;;;;;5024632;28;20108;-84
2022/07/25 04:04:01;;;;;;;11.80;8.38;;;20.50;99.90;;;;;;4996998;28;20462;-84
2022/07/25 04:06:30;;;;;;;12.65;9.02;;;20.50;99.90;;;;;;5012352;28;20111;-84
2022/07/25 04:08:55;;;;;;;14.63;8.98;;;20.50;99.90;;;;;;5001739;28;20050;-84
2022/07/25 04:11:24;;;;;;;11.48;8.25;;;20.40;99.90;;;;;;5002539;28;20045;-84
2022/07/25 04:13:53;;;;;;;10.35;8.15;;;20.40;99.90;;;;;;5013743;28;20375;-84
2022/07/25 04:16:19;;;;;;;10.50;8.30;;;20.40;99.90;;;;;;4999443;28;20045;-84
2022/07/25 04:18:44;;;;;;;12.75;8.68;;;20.40;99.90;;;;;;5004164;28;20050;-84
2022/07/25 04:21:10;;;;;;;11.73;8.48;;;20.40;99.90;;;;;;5012020;28;20489;-84
2022/07/25 04:23:36;;;;;;;10.95;8.30;;;20.40;99.90;;;;;;4997705;28;20133;-84
2022/07/25 04:26:02;;;;;;;12.93;9.02;;;20.40;99.90;;;;;;5003664;28;20124;-84
2022/07/25 04:28:29;;;;;;;15.43;9.63;;;20.40;99.90;;;;;;5011850;28;20069;-84
2022/07/25 04:30:55;;;;;;;10.82;8.88;;;20.40;99.90;;;;;;4995552;28;20446;-85
2022/07/25 04:33:21;;;;;;;11.98;8.70;;;20.40;99.90;;;;;;5010794;28;20053;-84
2022/07/25 04:35:47;;;;;;;12.77;9.05;;;20.40;99.90;;;;;;4992313;28;20042;-84
2022/07/25 04:38:12;;;;;;;10.75;8.95;;;20.40;99.90;;;;;;5014792;28;20068;-85
2022/07/25 04:40:38;;;;;;;11.10;8.20;;;20.50;99.90;;;;;;5018175;28;20092;-84
2022/07/25 04:43:07;;;;;;;13.18;8.57;;;20.50;99.90;;;;;;4996424;28;20048;-84
2022/07/25 04:45:33;;;;;;;12.32;9.50;;;20.50;99.90;;;;;;4995671;28;20101;-85
2022/07/25 04:47:59;;;;;;;13.35;9.55;;;20.60;99.90;;;;;;5003146;28;20096;-85
2022/07/25 04:50:25;;;;;;;11.38;9.20;;;20.70;99.90;;;;;;5011657;28;20103;-84
2022/07/25 04:52:51;;;;;;;11.88;9.82;;;20.70;99.90;;;;;;4992890;28;20430;-85
2022/07/25 04:55:17;;;;;;;13.05;9.45;;;20.90;99.90;;;;;;5002410;28;20042;-84
2022/07/25 04:57:42;;;;;;;12.90;9.52;;;20.90;99.90;;;;;;4993532;28;20031;-84
2022/07/25 05:00:10;;;;;;;12.07;8.90;;;20.90;99.90;;;;;;5001819;28;20054;-85
2022/07/25 05:02:36;;;;;;;11.13;9.48;;;20.90;99.90;;;;;;5002117;28;20046;-84
2022/07/25 05:05:03;;;;;;;12.65;9.80;;;20.90;99.90;;;;;;5002708;28;20070;-84
2022/07/25 05:07:29;;;;;;;12.43;9.40;;;20.90;99.90;;;;;;5007141;28;20053;-84
2022/07/25 05:09:55;;;;;;;12.18;9.48;;;20.90;99.90;;;;;;4999887;28;20054;-84
2022/07/25 05:12:20;;;;;;;14.57;9.93;;;21.30;99.90;;;;;;5002870;28;20525;-84
2022/07/25 05:14:46;;;;;;;12.57;9.75;;;21.00;99.90;;;;;;5001110;28;20042;-84
2022/07/25 05:17:11;;;;;;;16.15;9.93;;;21.00;99.90;;;;;;5010206;28;20120;-84
2022/07/25 05:19:37;;;;;;;11.88;8.70;;;21.10;99.90;;;;;;4999237;28;20054;-85
2022/07/25 05:22:03;;;;;;;12.50;9.85;;;21.00;99.90;;;;;;4995803;28;20046;-86
2022/07/25 05:24:37;;;;;;;13.48;9.57;;;21.20;99.90;;;;;;5004363;28;20038;-86
2022/07/25 05:27:03;;;;;;;14.05;8.80;;;21.20;99.90;;;;;;5008498;28;20034;-86
2022/07/25 05:29:29;;;;;;;11.90;10.20;;;21.20;99.90;;;;;;5004545;28;20394;-86
2022/07/25 05:31:55;;;;;;;15.60;10.05;;;21.30;99.90;;;;;;4992571;28;20046;-86
2022/07/25 05:34:21;;;;;;;14.45;10.20;;;21.30;99.90;;;;;;4995182;28;20049;-86
2022/07/25 05:36:46;;;;;;;15.10;10.82;;;21.50;99.90;;;;;;5005384;28;20085;-83
2022/07/25 05:39:12;;;;;;;17.15;11.10;;;21.50;99.90;;;;;;4998621;28;20080;-84
2022/07/25 05:41:38;;;;;;;11.60;9.20;;;21.50;99.90;;;;;;5003911;28;20045;-84
2022/07/25 05:44:04;;;;;;;12.57;9.50;;;21.50;99.90;;;;;;5011766;28;20068;-84
2022/07/25 05:46:33;;;;;;;13.75;9.82;;;21.50;99.90;;;;;;5003536;28;20060;-84
2022/07/25 05:48:59;;;;;;;13.88;10.20;;;21.60;99.90;;;;;;4999750;28;20041;-85
2022/07/25 05:51:25;;;;;;;13.57;9.70;;;22.10;99.90;;;;;;5010722;28;20045;-86
2022/07/25 05:53:50;;;;;;;20.83;11.20;;;21.70;99.90;;;;;;5005119;28;20052;-85
2022/07/25 05:56:16;;;;;;;14.30;9.23;;;21.90;99.90;;;;;;5018165;28;20045;-86
2022/07/25 05:58:42;;;;;;;13.68;10.23;;;21.80;99.90;;;;;;5022172;28;20038;-86
2022/07/25 06:01:11;;;;;;;13.55;9.88;;;21.80;99.90;;;;;;5015642;28;20104;-85
2022/07/25 06:03:36;;;;;;;13.55;9.25;;;21.90;99.90;;;;;;5016079;28;20059;-85
2022/07/25 06:06:02;;;;;;;13.43;9.23;;;22.00;99.90;;;;;;5028172;28;20033;-85
2022/07/25 06:08:29;;;;;;;14.38;10.27;;;22.00;99.90;;;;;;5011933;28;20090;-85
2022/07/25 06:10:57;;;;;;;14.52;9.20;;;22.10;99.90;;;;;;5012193;28;20120;-85
2022/07/25 06:13:22;;;;;;;14.70;9.55;;;22.10;99.90;;;;;;5016192;28;20096;-85
2022/07/25 06:15:48;;;;;;;14.23;10.27;;;22.10;99.90;;;;;;5007299;28;20448;-85
2022/07/25 06:18:13;;;;;;;14.88;10.43;;;22.20;99.90;;;;;;5014806;28;20129;-86
2022/07/25 06:20:39;;;;;;;12.85;9.43;;;22.30;99.90;;;;;;5005211;28;20089;-85
2022/07/25 06:23:04;;;;;;;13.50;10.68;;;22.30;99.90;;;;;;5017626;28;20080;-86
2022/07/25 06:25:30;;;;;;;15.40;9.95;;;22.40;99.90;;;;;;5018036;28;20486;-85
2022/07/25 06:27:56;;;;;;;12.65;9.93;;;22.50;99.90;;;;;;4995893;28;20049;-85
2022/07/25 06:30:21;;;;;;;12.65;9.77;;;22.50;99.90;;;;;;5014828;28;20049;-86
2022/07/25 06:32:48;;;;;;;15.82;10.55;;;22.60;99.90;;;;;;5019432;28;20029;-86
2022/07/25 06:35:14;;;;;;;14.70;11.07;;;22.60;99.90;;;;;;5014708;28;20443;-85
2022/07/25 06:37:40;;;;;;;14.63;10.23;;;22.60;99.90;;;;;;5018294;28;20563;-86
2022/07/25 06:40:06;;;;;;;14.18;10.30;;;22.60;99.90;;;;;;4999397;28;20073;-91
2022/07/25 06:42:33;;;;;;;13.43;10.25;;;22.50;99.90;;;;;;5022883;28;20049;-90
2022/07/25 06:45:03;;;;;;;12.07;10.07;;;22.50;99.90;;;;;;5011157;28;20050;-89
2022/07/25 06:47:29;;;;;;;15.65;9.90;;;22.60;99.90;;;;;;5022136;28;20144;-90
2022/07/25 06:49:54;;;;;;;12.95;10.10;;;22.60;99.90;;;;;;5020844;28;20128;-91
2022/07/25 06:52:20;;;;;;;14.13;10.38;;;22.60;99.90;;;;;;5019745;28;20045;-93
2022/07/25 06:54:46;;;;;;;14.48;10.07;;;22.50;99.90;;;;;;5021938;28;20192;-91
2022/07/25 06:57:11;;;;;;;14.18;10.10;;;22.60;99.90;;;;;;5012579;28;20036;-90
2022/07/25 06:59:37;;;;;;;12.75;10.63;;;22.60;99.90;;;;;;4994045;28;20045;-86
2022/07/25 07:02:02;;;;;;;12.45;10.13;;;22.70;99.90;;;;;;5008538;28;20095;-85
2022/07/25 07:04:28;;;;;;;14.70;10.10;;;22.70;99.90;;;;;;5006551;28;20084;-85
2022/07/25 07:06:53;;;;;;;14.32;9.90;;;22.90;99.90;;;;;;4992338;28;20042;-85
2022/07/25 07:09:19;;;;;;;12.23;9.70;;;23.00;99.90;;;;;;5003662;28;20049;-84
2022/07/25 07:11:44;;;;;;;13.90;9.55;;;23.30;99.90;;;;;;5003610;28;20111;-84
2022/07/25 07:14:10;;;;;;;14.13;9.68;;;23.50;99.90;;;;;;5010070;28;20052;-84
2022/07/25 07:16:36;;;;;;;12.00;9.07;;;23.70;99.90;;;;;;4993565;28;20045;-86
2022/07/25 07:19:01;;;;;;;14.82;10.00;;;23.80;99.90;;;;;;5010565;28;20048;-88
2022/07/25 07:21:27;;;;;;;12.20;9.82;;;23.80;99.90;;;;;;4994032;28;20053;-88
2022/07/25 07:23:52;;;;;;;13.30;9.98;;;23.90;99.90;;;;;;5010914;28;20053;-88
2022/07/25 07:26:18;;;;;;;11.32;9.75;;;23.90;99.90;;;;;;5011756;28;20118;-88
2022/07/25 07:28:44;;;;;;;18.95;10.88;;;24.00;99.90;;;;;;5009114;28;20238;-89
2022/07/25 07:31:09;;;;;;;15.30;10.85;;;24.00;99.90;;;;;;4992210;28;20434;-89
2022/07/25 07:33:36;;;;;;;13.75;10.27;;;24.00;99.90;;;;;;4993090;28;20054;-89
2022/07/25 07:36:02;;;;;;;12.45;10.25;;;24.00;99.90;;;;;;5003917;28;20159;-88
2022/07/25 07:38:28;;;;;;;15.75;11.05;;;24.00;99.90;;;;;;5010871;28;20397;-89
2022/07/25 07:40:53;;;;;;;13.25;10.32;;;24.00;99.90;;;;;;4993626;28;20560;-88
2022/07/25 07:43:19;;;;;;;14.38;10.63;;;24.00;99.90;;;;;;4992195;28;20052;-88
2022/07/25 07:45:45;;;;;;;13.50;10.25;;;24.00;99.90;;;;;;4988918;28;20058;-88
2022/07/25 07:48:11;;;;;;;15.75;10.80;;;24.10;99.90;;;;;;4989209;28;20093;-88
2022/07/25 07:50:36;;;;;;;12.93;10.27;;;24.10;99.90;;;;;;4990417;28;20092;-89
2022/07/25 07:53:02;;;;;;;14.60;10.45;;;24.20;99.90;;;;;;4989621;28;20054;-89
2022/07/25 07:58:16;;;;;;;13.52;10.70;;;24.30;99.90;;;;;;4980600;28;20042;-87
2022/07/25 08:00:44;;;;;;;12.95;10.40;;;24.40;99.90;;;;;;4983482;28;20482;-88
2022/07/25 08:03:10;;;;;;;14.50;10.25;;;24.60;99.90;;;;;;4988948;28;20038;-88
2022/07/25 08:05:38;;;;;;;11.77;9.45;;;24.60;99.90;;;;;;4988507;28;20915;-88
2022/07/25 08:08:07;;;;;;;15.02;9.77;;;24.60;99.90;;;;;;4989820;28;20137;-89
2022/07/25 08:10:36;;;;;;;11.75;9.65;;;24.80;99.90;;;;;;4991729;28;20129;-90
2022/07/25 08:13:14;;;;;;;12.93;9.55;;;24.60;99.90;;;;;;4989283;28;20553;-89
2022/07/25 08:15:42;;;;;;;13.60;9.07;;;24.70;99.90;;;;;;4989814;28;20136;-86
2022/07/25 08:18:07;;;;;;;12.57;9.02;;;24.70;99.90;;;;;;4991450;28;20129;-89
2022/07/25 08:20:33;;;;;;;12.60;8.73;;;24.70;99.90;;;;;;4989841;28;20125;-88
2022/07/25 08:22:59;;;;;;;11.95;8.02;;;24.60;99.90;;;;;;4994312;28;20042;-89
2022/07/25 08:25:24;;;;;;;11.95;8.27;;;24.50;99.90;;;;;;4995228;28;20038;-89
2022/07/25 08:27:52;;;;;;;12.55;7.97;;;24.50;99.90;;;;;;4991900;28;20038;-89
2022/07/25 08:30:18;;;;;;;10.80;7.72;;;24.30;99.90;;;;;;4995149;28;20046;-89
2022/07/25 08:32:49;;;;;;;13.88;7.75;;;24.30;99.90;;;;;;4992606;28;20398;-89
2022/07/25 08:35:15;;;;;;;10.32;7.70;;;24.40;99.90;;;;;;4987686;28;20442;-89
2022/07/25 08:37:40;;;;;;;9.75;8.13;;;24.40;99.90;;;;;;4993796;28;20070;-89
2022/07/25 08:40:06;;;;;;;15.73;9.88;;;24.60;99.90;;;;;;4994879;28;20457;-89
2022/07/25 08:42:33;;;;;;;12.57;7.68;;;24.70;99.90;;;;;;4992294;28;20042;-89
2022/07/25 08:45:03;;;;;;;9.68;7.10;;;24.90;99.90;;;;;;5004197;28;20563;-88
2022/07/25 08:47:29;;;;;;;9.10;6.30;;;24.80;99.90;;;;;;5014089;28;20049;-89
2022/07/25 08:49:55;;;;;;;11.48;6.68;;;24.80;99.90;;;;;;4994938;28;20041;-88
2022/07/25 08:52:22;;;;;;;9.73;6.50;;;24.70;99.90;;;;;;5013385;28;20060;-89
2022/07/25 08:54:49;;;;;;;12.13;6.75;;;24.60;99.90;;;;;;5013436;28;20073;-88
2022/07/25 08:57:15;;;;;;;9.55;5.80;;;24.40;99.90;;;;;;5006309;28;20037;-88
2022/07/25 08:59:42;;;;;;;9.43;5.78;;;24.40;99.90;;;;;;4998806;28;20095;-87
2022/07/25 09:02:11;;;;;;;7.68;5.65;;;24.20;99.90;;;;;;4986384;28;20457;-89
2022/07/25 09:04:37;;;;;;;10.77;5.85;;;24.20;99.90;;;;;;4980857;28;20379;-90
2022/07/25 09:07:04;;;;;;;9.98;5.68;;;24.20;99.90;;;;;;4995185;28;20049;-89
2022/07/25 09:09:37;;;;;;;9.25;4.95;;;24.20;99.90;;;;;;5008155;28;20045;-90
2022/07/25 09:12:06;;;;;;;8.55;4.55;;;24.20;99.90;;;;;;4999059;28;20053;-87
2022/07/25 09:14:41;;;;;;;10.02;6.18;;;24.10;99.90;;;;;;5014909;28;20400;-87
2022/07/25 09:17:07;;;;;;;11.75;5.40;;;24.10;99.90;;;;;;5006724;28;20121;-87
2022/07/25 09:19:33;;;;;;;9.05;5.90;;;24.10;99.90;;;;;;5013045;28;20490;-88
2022/07/25 09:22:06;;;;;;;7.50;5.70;;;24.20;99.90;;;;;;5012611;28;20045;-87
2022/07/25 09:24:33;;;;;;;9.40;5.75;;;24.20;99.90;;;;;;5012095;28;20046;-89
2022/07/25 09:27:07;;;;;;;9.43;6.13;;;24.30;99.90;;;;;;5013554;28;20049;-88
2022/07/25 09:29:33;;;;;;;9.48;6.05;;;24.50;99.90;;;;;;4995556;28;20042;-87
2022/07/25 09:32:00;;;;;;;6.25;4.03;;;24.60;99.90;;;;;;5007860;28;20038;-95
2022/07/25 09:34:36;;;;;;;6.68;2.25;;;24.80;99.90;;;;;;4993991;28;20046;-94
2022/07/25 09:37:11;;;;;;;5.80;2.95;;;24.80;99.90;;;;;;5015489;28;20038;-92
2022/07/25 09:39:45;;;;;;;4.47;2.60;;;24.90;99.90;;;;;;5016035;28;20073;-94
2022/07/25 09:42:35;;;;;;;5.20;1.97;;;24.90;99.90;;;;;;5013411;28;20046;-93
2022/07/25 09:45:14;;;;;;;4.47;2.15;;;24.90;99.90;;;;;;5013447;28;20050;-93
2022/07/25 09:47:54;;;;;;;7.45;2.35;;;24.90;99.90;;;;;;4997666;28;20125;-94
2022/07/25 09:50:21;;;;;;;4.88;1.98;;;24.90;99.90;;;;;;4994742;28;20085;-88
2022/07/25 09:52:53;;;;;;;5.93;2.33;;;25.00;99.90;;;;;;4991832;28;20053;-87
2022/07/25 09:55:20;;;;;;;4.32;2.30;;;25.10;99.90;;;;;;4994848;28;20054;-88
2022/07/25 09:57:48;;;;;;;5.80;1.80;;;25.30;99.90;;;;;;4995715;28;20058;-87
2022/07/25 10:00:20;;;;;;;4.72;1.65;;;25.40;99.90;;;;;;5012669;28;20096;-88
2022/07/25 10:03:01;;;;;;;4.90;1.63;;;25.60;99.90;;;;;;4991125;28;20057;-87
2022/07/25 10:05:37;;;;;;;4.32;1.73;;;25.60;99.90;;;;;;4993834;28;20050;-88
2022/07/25 10:08:06;;;;;;;3.03;1.50;;;25.80;99.90;;;;;;4995575;28;20601;-88
2022/07/25 10:10:37;;;;;;;3.30;1.38;;;25.90;99.90;;;;;;5012118;28;20045;-87
2022/07/25 10:13:14;;;;;;;5.60;1.90;;;25.90;99.90;;;;;;4994487;28;20128;-85
2022/07/25 10:15:51;;;;;;;3.53;1.42;;;25.90;99.90;;;;;;4994409;28;20053;-86
2022/07/25 10:18:22;;;;;;;5.00;1.95;;;26.00;99.90;;;;;;4995615;28;20049;-85
2022/07/25 10:20:51;;;;;;;6.50;1.80;;;26.10;99.90;;;;;;5010562;28;20046;-86
2022/07/25 10:23:18;;;;;;;3.20;1.50;;;26.10;99.90;;;;;;5012948;28;20042;-85
2022/07/25 10:25:44;;;;;;;3.83;1.40;;;26.30;99.90;;;;;;5013204;28;20041;-86
2022/07/25 10:28:11;;;;;;;6.90;1.45;;;26.50;99.90;;;;;;5010531;28;20468;-86
2022/07/25 10:30:38;;;;;;;4.68;1.35;;;26.50;99.40;;;;;;5012280;28;20128;-86
2022/07/25 10:33:17;;;;;;;4.00;1.20;;;26.60;99.10;;;;;;5010473;28;20052;-86
2022/07/25 10:35:44;;;;;;;7.40;1.40;;;26.60;99.40;;;;;;5012821;28;20042;-85
2022/07/25 10:38:10;;;;;;;4.20;0.90;;;26.50;99.40;;;;;;5010029;28;20057;-85
2022/07/25 10:40:43;;;;;;;4.82;1.10;;;26.30;99.40;;;;;;5011559;28;20089;-87
2022/07/25 10:43:19;;;;;;;3.35;1.15;;;26.20;99.80;;;;;;5012219;28;20045;-80
2022/07/25 10:45:52;;;;;;;7.55;1.20;;;26.30;99.90;;;;;;4990274;28;20066;-84
2022/07/25 10:48:29;;;;;;;3.05;0.80;;;26.50;99.90;;;;;;4992369;28;20061;-87
2022/07/25 10:51:09;;;;;;;3.05;0.95;;;26.60;99.90;;;;;;4991113;28;20129;-87
2022/07/25 10:53:38;;;;;;;2.65;0.90;;;26.50;99.90;;;;;;4990860;28;20672;-87
2022/07/25 10:56:21;;;;;;;3.67;0.88;;;26.40;99.90;;;;;;4988752;28;20050;-87
2022/07/25 10:58:46;;;;;;;3.83;1.00;;;26.20;99.90;;;;;;4991159;28;20046;-87
2022/07/25 11:01:15;;;;;;;7.93;1.08;;;26.00;99.90;;;;;;4989997;28;20544;-86
2022/07/25 11:03:44;;;;;;;4.05;1.17;;;25.70;99.90;;;;;;4990437;28;20139;-86
2022/07/25 11:06:12;;;;;;;2.65;1.08;;;25.30;99.90;;;;;;4990671;28;20049;-86
2022/07/25 11:08:38;;;;;;;3.00;1.08;;;25.10;99.90;;;;;;4989639;28;20065;-86
2022/07/25 11:11:03;;;;;;;5.93;1.17;;;24.80;99.90;;;;;;4991071;28;20458;-86
2022/07/25 11:13:34;;;;;;;3.28;1.05;;;24.60;99.90;;;;;;4992719;28;20046;-86
2022/07/25 11:16:00;;;;;;;3.58;1.60;;;24.60;99.90;;;;;;4991102;28;20121;-87
2022/07/25 11:18:40;;;;;;;5.45;1.40;;;24.60;99.90;;;;;;4990791;28;20133;-87
2022/07/25 11:21:07;;;;;;;4.03;1.50;;;24.50;99.90;;;;;;4990244;28;20089;-86
2022/07/25 11:23:34;;;;;;;5.35;1.42;;;24.60;99.90;;;;;;4991028;28;20046;-87
2022/07/25 11:26:12;;;;;;;6.65;1.90;;;24.60;99.90;;;;;;4986151;28;20031;-86
2022/07/25 11:28:47;;;;;;;7.53;1.80;;;24.60;99.90;;;;;;4990265;28;20397;-85
2022/07/25 11:31:15;;;;;;;5.63;2.00;;;24.60;99.90;;;;;;4989680;28;20050;-87
2022/07/25 11:33:44;;;;;;;7.50;1.90;;;24.60;99.90;;;;;;4990970;28;20137;-84
2022/07/25 11:36:10;;;;;;;4.05;1.63;;;24.60;99.90;;;;;;4991884;28;20633;-84
2022/07/25 11:38:38;;;;;;;10.00;2.10;;;24.60;99.90;;;;;;5007103;28;20053;-84
2022/07/25 11:41:04;;;;;;;5.88;1.70;;;24.60;99.90;;;;;;4998517;28;20053;-89
2022/07/25 11:43:29;;;;;;;5.13;1.77;;;24.60;99.90;;;;;;4988688;28;20050;-85
2022/07/25 11:45:57;;;;;;;6.63;1.92;;;24.60;99.90;;;;;;5008658;28;20084;-84
2022/07/25 11:48:33;;;;;;;5.60;1.67;;;24.60;99.90;;;;;;5010383;28;20050;-83
2022/07/25 11:51:12;;;;;;;7.13;1.85;;;24.60;99.90;;;;;;5017483;28;20048;-82
2022/07/25 11:53:46;;;;;;;7.05;1.70;;;24.70;99.90;;;;;;5003309;28;20129;-82
2022/07/25 11:56:19;;;;;;;6.38;1.58;;;24.80;99.90;;;;;;5009748;28;20084;-82
2022/07/25 11:58:59;;;;;;;6.30;1.35;;;24.90;99.90;;;;;;5009648;28;20100;-82
2022/07/25 12:01:36;;;;;;;5.40;1.70;;;25.00;99.90;;;;;;4993820;28;20064;-82
2022/07/25 12:04:15;;;;;;;7.20;1.45;;;25.10;99.90;;;;;;5011085;28;20038;-82
2022/07/25 12:06:46;;;;;;;10.73;1.60;;;25.30;99.90;;;;;;4995377;28;20053;-82
2022/07/25 12:09:18;;;;;;;9.75;1.73;;;25.30;99.90;;;;;;5030239;28;20373;-82
2022/07/25 12:11:45;;;;;;;7.53;2.30;;;25.40;99.90;;;;;;5020344;28;20053;-82
2022/07/25 12:14:11;;;;;;;6.30;1.63;;;25.30;99.90;;;;;;5015393;28;20041;-81
2022/07/25 12:16:37;;;;;;;6.70;2.03;;;25.20;99.90;;;;;;5013006;28;20052;-82
2022/07/25 12:19:07;;;;;;;6.13;1.52;;;25.10;99.90;;;;;;5011482;28;20053;-82
2022/07/25 12:21:32;;;;;;;10.10;2.00;;;25.00;99.90;;;;;;4999565;28;20052;-82
2022/07/25 12:23:58;;;;;;;7.60;1.77;;;25.10;99.90;;;;;;4993056;28;20046;-82
2022/07/25 12:26:23;;;;;;;6.57;1.88;;;25.20;99.90;;;;;;4997499;28;20057;-82
2022/07/25 12:28:49;;;;;;;5.28;1.45;;;25.20;99.90;;;;;;4973837;28;20117;-83
2022/07/25 12:31:14;;;;;;;8.18;1.85;;;25.50;99.90;;;;;;5008371;28;20056;-82
2022/07/25 12:33:40;;;;;;;7.78;2.20;;;25.70;99.90;;;;;;4999165;28;20041;-82
2022/07/25 12:36:06;;;;;;;6.70;1.38;;;25.80;99.90;;;;;;5009239;28;20050;-82
2022/07/25 12:38:32;;;;;;;6.70;1.30;;;25.80;99.90;;;;;;4992631;28;20054;-83
2022/07/25 12:40:57;;;;;;;5.63;1.40;;;25.70;99.90;;;;;;5009979;28;20532;-82
2022/07/25 12:43:23;;;;;;;7.20;1.55;;;25.70;99.90;;;;;;5011112;28;20158;-82